• Join FlightAware (Why Join?)
  • Login
  • US Flag 
02:30AM EDT


 

Airport Tracker/Info


-or-


 

Live Flight TrackerFlight Track Log ✈ EJA727 ✈ 05-May-2013 ✈ KSDF - KUGN

Flight Track Log - Related Links

Times and Time Zones

All times are in EDT time to prevent confusion due to time zone crossing. See the EJA727 flight status page for this flight to view local times or setup timezone preferences in your user account.

Time Position Orientation Groundspeed Altitude Reporting Facility
EDT Latitude Longitude Course Direction KTS MPH feet Rate Location/Type
10:37AM 38.0844 -85.7436 357° North 237 273 5,200  Level Indianapolis Center
10:38AM 38.0564 -85.8233 246° West 284 327 8,200 2,400 Climbing Indianapolis Center
10:39AM 38.1117 -85.8936 315° West 305 351 10,200 2,040 Climbing Indianapolis Center
10:40AM 38.2194 -85.9144 351° North 330 380 12,500 1,980 Climbing Indianapolis Center
10:41AM 38.3258 -85.9331 352° North 369 425 14,400 1,680 Climbing Indianapolis Center
10:42AM 38.5641 -85.9920 357° North  Level FlightAware Approximate
10:42AM 38.4389 -85.9839 341° North 411 473 16,000  Level Indianapolis Center
10:43AM 38.5486 -86.0392 338° Northwest 424 488 16,300 960 Climbing Indianapolis Center
10:44AM 38.6567 -86.0931 339° North 417 480 18,000 2,040 Climbing Indianapolis Center
10:45AM 38.7678 -86.1478 339° North 424 488 20,600 2,700 Climbing Indianapolis Center
10:46AM 38.9022 -86.2158 339° North 437 503 23,700 2,220 Climbing Indianapolis Center
10:47AM 39.0267 -86.2781 339° North 470 541 25,300 1,500 Climbing Indianapolis Center
10:48AM 39.1544 -86.3442 338° Northwest 491 565 26,800 1,740 Climbing Indianapolis Center
10:49AM 39.2794 -86.4078 339° North 486 559 28,900 1,500 Climbing Indianapolis Center
10:50AM 39.4053 -86.4706 339° North 483 556 29,900 480 Climbing Indianapolis Center
10:51AM 39.5344 -86.5375 338° Northwest 491 565 30,000  Climbing Indianapolis Center
10:52AM 39.6694 -86.6025 340° North 506 582 30,000  Level Indianapolis Center
10:53AM 39.8072 -86.6525 344° North 507 583 30,000  Level Indianapolis Center
10:54AM 39.9708 -86.7167 343° North 508 585 30,000  Level Indianapolis Center
10:55AM 40.1056 -86.7694 343° North 506 582 30,000  Level Indianapolis Center
10:56AM 40.1325 -86.7792 345° North 503 579 30,000 600 Level Chicago Center
10:57AM 40.2664 -86.8317 343° North 501 577 30,800 960 Climbing Chicago Center
10:58AM 40.3981 -86.8833 343° North 496 571 32,000 540 Climbing Chicago Center
10:59AM 40.5333 -86.9397 342° North 507 583 32,000 1,080 Level Chicago Center
11:00AM 40.6947 -87.0042 343° North 502 578 34,300 1,440 Climbing Chicago Center
11:01AM 40.8178 -87.0533 343° North 486 559 35,000 300 Climbing Chicago Center
11:02AM 40.9461 -87.1028 344° North 483 556 35,000  Level Chicago Center
11:03AM 41.0728 -87.1497 344° North 474 545 35,000 -420 Level Chicago Center
11:04AM 41.2292 -87.1692 355° North 471 542 34,200 -1,200 Descending Chicago Center
11:05AM 41.3583 -87.1853 355° North 471 542 32,600 -1,680 Descending Chicago Center
11:06AM 41.4908 -87.2006 355° North 481 554 30,800 -1,860 Descending Chicago Center
11:07AM 41.6278 -87.2181 355° North 496 571 28,800 -1,980 Descending Chicago Center
11:08AM 41.7628 -87.2353 355° North 495 570 26,800 -2,040 Descending Chicago Center
11:09AM 41.8883 -87.2508 355° North 465 535 24,700 -2,160 Descending Chicago Center
11:10AM 42.0306 -87.2686 355° North 436 502 22,400 -2,100 Descending Chicago Center
11:11AM 42.1244 -87.3367 332° Northwest 402 463 20,400 -2,220 Descending Chicago Center
11:12AM 42.1514 -87.4664 286° West 363 418 17,900 -2,400 Descending Chicago Center
11:13AM 42.1703 -87.5964 281° West 358 412 15,600 -2,160 Descending Chicago Center
11:14AM 42.1878 -87.7161 281° West 334 384 13,500 -2,100 Descending Chicago Center
11:15AM 42.2028 -87.8275 280° West 311 358 11,400 -2,280 Descending Chicago Center
11:16AM 42.2303 -87.9389 288° West 271 312 8,900 -2,340 Descending Chicago Center
11:17AM 42.2889 -87.9711 338° Northwest 229 264 6,700 -2,520 Descending Chicago Center
11:18AM 42.3372 -87.9728 359° North 207 238 3,800 -2,040 Descending Chicago Center
11:19AM 42.3839 -87.9383 29° Northeast 173 199 2,500 -960 Descending Chicago Center
11:21AM 42.4167 -87.8500 63° Northeast 141 162 1,000 -420 Descending Chicago TRACON
11:23AM 42.4167 -87.8500 180° South 141 162 1,000  Level Chicago TRACON